SAOU/LUQ METAR and TAF weather

Enter ICAO airport designator
Station Type Date Time Source
SAOU METAR 2021/01/15 06:35 UTC NOAA

SAOU 150635Z 14009KT 8000 -TSRA SCT040 FEW045CB SCT050 22/20 Q1010 RMK CB OBS TO W


Station Type Date Time Source
SAOU Decoded METAR 2021/01/15 06:35 UTC NOAA

San Luis Aerodrome, Argentina (SAOU) 33-16S 066-21W 713M
Jan 15, 2021 - 01:35 AM EST / 2021.01.15 0635 UTC
Wind: from the SE (140 degrees) at 10 MPH (9 KT):0
Visibility: 4 mile(s):0
Sky conditions: partly cloudy
Weather: light rain with thunder; Cumulonimbus clouds observed
Temperature: 71 F (22 C)
Dew Point: 68 F (20 C)
Relative Humidity: 88%
Pressure (altimeter): 29.83 in. Hg (1010 hPa)
ob: SAOU 150635Z 14009KT 8000 -TSRA SCT040 FEW045CB SCT050 22/20 Q1010 RMK CB OBS TO W
cycle: 6

Station Type Date Time Source
SAOU TAF 2021/01/03 06:06 UTC NOAA

TAF SAOU 030500Z 0306/0406 14010KT 6000 TSRA BKN015 FEW030CB BKN050 TX25/0318Z TN16/0309Z
BECMG 0314/0316 21010KT 9999 NSW BKN020

Example: see airport list